sensor_id;sensor_type;location;lat;lon;timestamp;P1;durP1;ratioP1;P2;durP2;ratioP2
5900;SDS011;2976;49.764;9.796;2022-10-31T00:03:42;22.87;;;11.70;;
5900;SDS011;2976;49.764;9.796;2022-10-31T00:06:07;40.23;;;12.80;;
5900;SDS011;2976;49.764;9.796;2022-10-31T00:08:33;45.33;;;12.23;;
5900;SDS011;2976;49.764;9.796;2022-10-31T00:10:59;23.13;;;9.63;;
5900;SDS011;2976;49.764;9.796;2022-10-31T00:13:24;21.60;;;9.97;;
5900;SDS011;2976;49.764;9.796;2022-10-31T00:15:50;13.27;;;8.10;;
5900;SDS011;2976;49.764;9.796;2022-10-31T00:18:15;15.10;;;7.50;;
5900;SDS011;2976;49.764;9.796;2022-10-31T00:20:41;14.77;;;7.13;;
5900;SDS011;2976;49.764;9.796;2022-10-31T00:23:06;12.80;;;5.27;;
5900;SDS011;2976;49.764;9.796;2022-10-31T00:25:33;6.27;;;5.23;;
5900;SDS011;2976;49.764;9.796;2022-10-31T00:28:01;7.63;;;5.93;;
5900;SDS011;2976;49.764;9.796;2022-10-31T00:30:27;13.33;;;9.00;;
5900;SDS011;2976;49.764;9.796;2022-10-31T00:32:52;14.00;;;7.80;;
5900;SDS011;2976;49.764;9.796;2022-10-31T00:35:18;12.87;;;9.33;;
5900;SDS011;2976;49.764;9.796;2022-10-31T00:37:43;16.77;;;9.73;;
5900;SDS011;2976;49.764;9.796;2022-10-31T00:40:09;26.13;;;12.80;;
5900;SDS011;2976;49.764;9.796;2022-10-31T00:42:35;22.20;;;13.00;;
5900;SDS011;2976;49.764;9.796;2022-10-31T00:45:01;21.17;;;12.37;;
5900;SDS011;2976;49.764;9.796;2022-10-31T00:47:26;24.37;;;13.73;;
5900;SDS011;2976;49.764;9.796;2022-10-31T00:49:52;19.33;;;12.57;;
5900;SDS011;2976;49.764;9.796;2022-10-31T00:52:17;21.03;;;12.47;;
5900;SDS011;2976;49.764;9.796;2022-10-31T00:54:43;25.30;;;13.23;;
5900;SDS011;2976;49.764;9.796;2022-10-31T00:57:08;28.50;;;13.40;;
5900;SDS011;2976;49.764;9.796;2022-10-31T00:59:34;40.90;;;14.57;;
5900;SDS011;2976;49.764;9.796;2022-10-31T01:01:59;27.30;;;13.03;;
5900;SDS011;2976;49.764;9.796;2022-10-31T01:04:25;23.10;;;11.70;;
5900;SDS011;2976;49.764;9.796;2022-10-31T01:06:50;21.97;;;11.37;;
5900;SDS011;2976;49.764;9.796;2022-10-31T01:09:16;17.60;;;10.70;;
5900;SDS011;2976;49.764;9.796;2022-10-31T01:11:41;14.27;;;9.43;;
5900;SDS011;2976;49.764;9.796;2022-10-31T01:14:07;19.47;;;9.80;;
5900;SDS011;2976;49.764;9.796;2022-10-31T01:16:33;35.37;;;7.03;;
5900;SDS011;2976;49.764;9.796;2022-10-31T01:18:59;38.70;;;6.60;;
5900;SDS011;2976;49.764;9.796;2022-10-31T01:21:25;14.70;;;8.03;;
5900;SDS011;2976;49.764;9.796;2022-10-31T01:23:55;16.73;;;7.00;;
5900;SDS011;2976;49.764;9.796;2022-10-31T01:26:22;13.87;;;5.80;;
5900;SDS011;2976;49.764;9.796;2022-10-31T01:28:53;28.20;;;6.40;;
5900;SDS011;2976;49.764;9.796;2022-10-31T01:31:20;7.10;;;5.67;;
5900;SDS011;2976;49.764;9.796;2022-10-31T01:33:47;13.10;;;6.70;;
5900;SDS011;2976;49.764;9.796;2022-10-31T01:36:14;10.77;;;6.33;;
5900;SDS011;2976;49.764;9.796;2022-10-31T01:38:42;26.37;;;7.40;;
5900;SDS011;2976;49.764;9.796;2022-10-31T01:41:08;12.03;;;6.20;;
5900;SDS011;2976;49.764;9.796;2022-10-31T01:43:43;15.17;;;9.03;;
5900;SDS011;2976;49.764;9.796;2022-10-31T01:46:10;27.13;;;11.97;;
5900;SDS011;2976;49.764;9.796;2022-10-31T01:48:36;24.17;;;12.10;;
5900;SDS011;2976;49.764;9.796;2022-10-31T01:51:03;25.10;;;11.80;;
5900;SDS011;2976;49.764;9.796;2022-10-31T01:53:30;18.97;;;11.50;;
5900;SDS011;2976;49.764;9.796;2022-10-31T01:55:57;15.93;;;8.63;;
5900;SDS011;2976;49.764;9.796;2022-10-31T01:58:25;13.87;;;8.47;;
5900;SDS011;2976;49.764;9.796;2022-10-31T02:00:54;13.17;;;7.80;;
5900;SDS011;2976;49.764;9.796;2022-10-31T02:03:23;13.80;;;8.50;;
5900;SDS011;2976;49.764;9.796;2022-10-31T02:05:50;7.90;;;6.07;;
5900;SDS011;2976;49.764;9.796;2022-10-31T02:10:51;9.90;;;6.03;;
5900;SDS011;2976;49.764;9.796;2022-10-31T02:13:17;11.50;;;5.53;;
5900;SDS011;2976;49.764;9.796;2022-10-31T02:15:44;19.40;;;7.00;;
5900;SDS011;2976;49.764;9.796;2022-10-31T02:18:12;8.33;;;6.03;;
5900;SDS011;2976;49.764;9.796;2022-10-31T02:21:39;7.30;;;5.90;;
5900;SDS011;2976;49.764;9.796;2022-10-31T02:37:25;19.63;;;6.00;;
5900;SDS011;2976;49.764;9.796;2022-10-31T02:39:54;32.17;;;6.63;;
5900;SDS011;2976;49.764;9.796;2022-10-31T02:42:30;16.53;;;6.03;;
5900;SDS011;2976;49.764;9.796;2022-10-31T02:45:08;20.13;;;6.00;;
5900;SDS011;2976;49.764;9.796;2022-10-31T02:47:45;21.17;;;5.60;;
5900;SDS011;2976;49.764;9.796;2022-10-31T02:50:21;12.87;;;6.07;;
5900;SDS011;2976;49.764;9.796;2022-10-31T02:52:51;11.57;;;5.17;;
5900;SDS011;2976;49.764;9.796;2022-10-31T02:57:53;20.23;;;6.00;;
5900;SDS011;2976;49.764;9.796;2022-10-31T03:00:47;7.93;;;5.37;;
5900;SDS011;2976;49.764;9.796;2022-10-31T03:03:20;12.33;;;6.27;;
5900;SDS011;2976;49.764;9.796;2022-10-31T03:08:37;23.90;;;6.17;;
5900;SDS011;2976;49.764;9.796;2022-10-31T03:11:20;24.53;;;5.83;;
5900;SDS011;2976;49.764;9.796;2022-10-31T03:13:52;11.23;;;5.37;;
5900;SDS011;2976;49.764;9.796;2022-10-31T03:16:23;27.50;;;5.80;;
5900;SDS011;2976;49.764;9.796;2022-10-31T03:21:47;29.13;;;5.33;;
5900;SDS011;2976;49.764;9.796;2022-10-31T03:24:24;21.10;;;5.40;;
5900;SDS011;2976;49.764;9.796;2022-10-31T03:26:55;33.57;;;5.93;;
5900;SDS011;2976;49.764;9.796;2022-10-31T03:29:24;4.23;;;3.93;;
5900;SDS011;2976;49.764;9.796;2022-10-31T03:32:39;7.10;;;4.80;;
5900;SDS011;2976;49.764;9.796;2022-10-31T03:34:41;5.40;;;4.10;;
5900;SDS011;2976;49.764;9.796;2022-10-31T03:37:10;18.57;;;4.10;;
5900;SDS011;2976;49.764;9.796;2022-10-31T03:39:41;7.60;;;4.33;;
5900;SDS011;2976;49.764;9.796;2022-10-31T03:42:11;5.20;;;4.40;;
5900;SDS011;2976;49.764;9.796;2022-10-31T03:44:48;6.63;;;5.30;;
5900;SDS011;2976;49.764;9.796;2022-10-31T03:47:18;11.83;;;6.07;;
5900;SDS011;2976;49.764;9.796;2022-10-31T03:49:44;11.43;;;5.67;;
5900;SDS011;2976;49.764;9.796;2022-10-31T03:55:02;12.43;;;5.27;;
5900;SDS011;2976;49.764;9.796;2022-10-31T03:57:39;6.33;;;5.07;;
5900;SDS011;2976;49.764;9.796;2022-10-31T04:00:12;6.43;;;4.87;;
5900;SDS011;2976;49.764;9.796;2022-10-31T04:02:41;5.90;;;5.30;;
5900;SDS011;2976;49.764;9.796;2022-10-31T04:05:09;5.87;;;5.30;;
5900;SDS011;2976;49.764;9.796;2022-10-31T04:07:39;15.80;;;5.47;;
5900;SDS011;2976;49.764;9.796;2022-10-31T04:10:08;23.00;;;5.57;;
5900;SDS011;2976;49.764;9.796;2022-10-31T04:12:36;5.60;;;4.53;;
5900;SDS011;2976;49.764;9.796;2022-10-31T04:15:04;7.67;;;5.20;;
5900;SDS011;2976;49.764;9.796;2022-10-31T04:17:33;8.77;;;5.20;;
5900;SDS011;2976;49.764;9.796;2022-10-31T04:20:01;7.10;;;6.27;;
5900;SDS011;2976;49.764;9.796;2022-10-31T04:22:27;6.37;;;4.87;;
5900;SDS011;2976;49.764;9.796;2022-10-31T04:24:53;7.30;;;4.33;;
5900;SDS011;2976;49.764;9.796;2022-10-31T04:27:18;19.63;;;5.27;;
5900;SDS011;2976;49.764;9.796;2022-10-31T04:29:44;25.17;;;6.40;;
5900;SDS011;2976;49.764;9.796;2022-10-31T04:32:11;51.63;;;7.10;;
5900;SDS011;2976;49.764;9.796;2022-10-31T04:34:36;49.37;;;6.03;;
5900;SDS011;2976;49.764;9.796;2022-10-31T04:37:02;24.57;;;5.80;;
5900;SDS011;2976;49.764;9.796;2022-10-31T04:39:27;5.20;;;4.70;;
5900;SDS011;2976;49.764;9.796;2022-10-31T04:41:53;21.90;;;7.17;;
5900;SDS011;2976;49.764;9.796;2022-10-31T04:44:18;12.67;;;5.10;;
5900;SDS011;2976;49.764;9.796;2022-10-31T04:46:44;15.50;;;4.80;;
5900;SDS011;2976;49.764;9.796;2022-10-31T04:49:09;5.30;;;4.90;;
5900;SDS011;2976;49.764;9.796;2022-10-31T04:51:35;7.00;;;4.60;;
5900;SDS011;2976;49.764;9.796;2022-10-31T04:54:00;6.20;;;5.00;;
5900;SDS011;2976;49.764;9.796;2022-10-31T04:56:26;14.40;;;6.53;;
5900;SDS011;2976;49.764;9.796;2022-10-31T04:58:51;11.30;;;6.27;;
5900;SDS011;2976;49.764;9.796;2022-10-31T05:01:17;9.87;;;5.93;;
5900;SDS011;2976;49.764;9.796;2022-10-31T05:03:43;10.77;;;6.07;;
5900;SDS011;2976;49.764;9.796;2022-10-31T05:06:08;7.90;;;5.77;;
5900;SDS011;2976;49.764;9.796;2022-10-31T05:08:34;12.33;;;6.50;;
5900;SDS011;2976;49.764;9.796;2022-10-31T05:11:00;13.30;;;6.87;;
5900;SDS011;2976;49.764;9.796;2022-10-31T05:13:27;13.67;;;7.00;;
5900;SDS011;2976;49.764;9.796;2022-10-31T05:15:52;9.90;;;7.40;;
5900;SDS011;2976;49.764;9.796;2022-10-31T05:18:18;28.87;;;9.60;;
5900;SDS011;2976;49.764;9.796;2022-10-31T05:20:44;21.13;;;8.80;;
5900;SDS011;2976;49.764;9.796;2022-10-31T05:23:09;16.20;;;7.63;;
5900;SDS011;2976;49.764;9.796;2022-10-31T05:25:35;17.83;;;7.27;;
5900;SDS011;2976;49.764;9.796;2022-10-31T05:28:00;15.83;;;7.43;;
5900;SDS011;2976;49.764;9.796;2022-10-31T05:30:27;18.43;;;6.90;;
5900;SDS011;2976;49.764;9.796;2022-10-31T05:32:54;20.40;;;6.60;;
5900;SDS011;2976;49.764;9.796;2022-10-31T05:35:22;11.47;;;6.33;;
5900;SDS011;2976;49.764;9.796;2022-10-31T05:37:49;15.30;;;7.27;;
5900;SDS011;2976;49.764;9.796;2022-10-31T05:40:15;13.23;;;7.00;;
5900;SDS011;2976;49.764;9.796;2022-10-31T05:42:42;22.00;;;7.43;;
5900;SDS011;2976;49.764;9.796;2022-10-31T05:45:12;19.17;;;7.20;;
5900;SDS011;2976;49.764;9.796;2022-10-31T05:47:40;34.83;;;6.70;;
5900;SDS011;2976;49.764;9.796;2022-10-31T05:50:05;45.43;;;6.67;;
5900;SDS011;2976;49.764;9.796;2022-10-31T05:52:32;18.87;;;5.97;;
5900;SDS011;2976;49.764;9.796;2022-10-31T05:54:58;13.47;;;5.70;;
5900;SDS011;2976;49.764;9.796;2022-10-31T05:57:23;13.00;;;5.60;;
5900;SDS011;2976;49.764;9.796;2022-10-31T05:59:49;12.00;;;4.70;;
5900;SDS011;2976;49.764;9.796;2022-10-31T06:02:17;18.80;;;6.77;;
5900;SDS011;2976;49.764;9.796;2022-10-31T06:04:43;29.53;;;5.97;;
5900;SDS011;2976;49.764;9.796;2022-10-31T06:07:09;12.53;;;5.60;;
5900;SDS011;2976;49.764;9.796;2022-10-31T06:09:34;9.70;;;5.17;;
5900;SDS011;2976;49.764;9.796;2022-10-31T06:12:00;5.03;;;4.53;;
5900;SDS011;2976;49.764;9.796;2022-10-31T06:14:25;9.53;;;4.90;;
5900;SDS011;2976;49.764;9.796;2022-10-31T06:16:51;17.20;;;5.87;;
5900;SDS011;2976;49.764;9.796;2022-10-31T06:19:17;9.67;;;5.17;;
5900;SDS011;2976;49.764;9.796;2022-10-31T06:21:42;13.60;;;5.40;;
5900;SDS011;2976;49.764;9.796;2022-10-31T06:24:08;12.13;;;5.10;;
5900;SDS011;2976;49.764;9.796;2022-10-31T06:26:33;12.30;;;5.43;;
5900;SDS011;2976;49.764;9.796;2022-10-31T06:28:59;12.30;;;5.07;;
5900;SDS011;2976;49.764;9.796;2022-10-31T06:31:24;14.13;;;5.10;;
5900;SDS011;2976;49.764;9.796;2022-10-31T06:33:50;12.53;;;6.40;;
5900;SDS011;2976;49.764;9.796;2022-10-31T06:36:15;27.27;;;5.67;;
5900;SDS011;2976;49.764;9.796;2022-10-31T06:38:41;38.07;;;6.50;;
5900;SDS011;2976;49.764;9.796;2022-10-31T06:41:06;53.60;;;7.57;;
5900;SDS011;2976;49.764;9.796;2022-10-31T06:43:32;24.23;;;5.93;;
5900;SDS011;2976;49.764;9.796;2022-10-31T06:46:02;15.97;;;8.00;;
5900;SDS011;2976;49.764;9.796;2022-10-31T06:48:28;24.80;;;5.37;;
5900;SDS011;2976;49.764;9.796;2022-10-31T06:50:57;49.70;;;8.17;;
5900;SDS011;2976;49.764;9.796;2022-10-31T06:53:23;18.43;;;4.70;;
5900;SDS011;2976;49.764;9.796;2022-10-31T06:55:49;11.07;;;5.20;;
5900;SDS011;2976;49.764;9.796;2022-10-31T06:58:14;10.93;;;5.50;;
5900;SDS011;2976;49.764;9.796;2022-10-31T07:00:40;8.53;;;5.67;;
5900;SDS011;2976;49.764;9.796;2022-10-31T07:03:07;15.83;;;5.20;;
5900;SDS011;2976;49.764;9.796;2022-10-31T07:05:35;6.80;;;5.10;;
5900;SDS011;2976;49.764;9.796;2022-10-31T07:08:02;18.47;;;7.77;;
5900;SDS011;2976;49.764;9.796;2022-10-31T07:10:31;31.70;;;5.87;;
5900;SDS011;2976;49.764;9.796;2022-10-31T07:12:59;7.13;;;5.63;;
5900;SDS011;2976;49.764;9.796;2022-10-31T07:15:27;8.63;;;5.20;;
5900;SDS011;2976;49.764;9.796;2022-10-31T07:17:58;8.80;;;4.90;;
5900;SDS011;2976;49.764;9.796;2022-10-31T07:20:28;11.50;;;4.77;;
5900;SDS011;2976;49.764;9.796;2022-10-31T07:22:54;9.27;;;4.70;;
5900;SDS011;2976;49.764;9.796;2022-10-31T07:25:20;11.70;;;4.93;;
5900;SDS011;2976;49.764;9.796;2022-10-31T07:27:46;16.83;;;5.17;;
5900;SDS011;2976;49.764;9.796;2022-10-31T07:30:12;5.60;;;3.70;;
5900;SDS011;2976;49.764;9.796;2022-10-31T07:35:08;31.03;;;5.07;;
5900;SDS011;2976;49.764;9.796;2022-10-31T07:37:35;15.43;;;5.50;;
5900;SDS011;2976;49.764;9.796;2022-10-31T07:40:02;13.30;;;5.20;;
5900;SDS011;2976;49.764;9.796;2022-10-31T07:42:28;6.97;;;4.53;;
5900;SDS011;2976;49.764;9.796;2022-10-31T07:44:53;9.80;;;5.60;;
5900;SDS011;2976;49.764;9.796;2022-10-31T07:47:19;22.37;;;4.70;;
5900;SDS011;2976;49.764;9.796;2022-10-31T07:49:44;14.37;;;4.07;;
5900;SDS011;2976;49.764;9.796;2022-10-31T07:52:10;10.87;;;3.90;;
5900;SDS011;2976;49.764;9.796;2022-10-31T07:54:36;55.87;;;5.70;;
5900;SDS011;2976;49.764;9.796;2022-10-31T07:57:01;15.43;;;4.70;;
5900;SDS011;2976;49.764;9.796;2022-10-31T07:59:27;26.33;;;5.70;;
5900;SDS011;2976;49.764;9.796;2022-10-31T08:01:53;22.00;;;4.77;;
5900;SDS011;2976;49.764;9.796;2022-10-31T08:04:18;17.60;;;5.03;;
5900;SDS011;2976;49.764;9.796;2022-10-31T08:06:44;22.73;;;5.20;;
5900;SDS011;2976;49.764;9.796;2022-10-31T08:09:09;61.87;;;6.40;;
5900;SDS011;2976;49.764;9.796;2022-10-31T08:11:35;25.00;;;6.20;;
5900;SDS011;2976;49.764;9.796;2022-10-31T08:14:00;118.03;;;7.30;;
5900;SDS011;2976;49.764;9.796;2022-10-31T08:16:26;122.57;;;8.53;;
5900;SDS011;2976;49.764;9.796;2022-10-31T08:18:52;79.33;;;7.00;;
5900;SDS011;2976;49.764;9.796;2022-10-31T08:21:20;9.50;;;5.87;;
5900;SDS011;2976;49.764;9.796;2022-10-31T08:23:46;74.60;;;8.40;;
5900;SDS011;2976;49.764;9.796;2022-10-31T08:26:11;42.43;;;12.30;;
5900;SDS011;2976;49.764;9.796;2022-10-31T08:28:37;72.00;;;9.73;;
5900;SDS011;2976;49.764;9.796;2022-10-31T08:31:02;109.50;;;16.90;;
5900;SDS011;2976;49.764;9.796;2022-10-31T08:33:28;28.40;;;8.73;;
5900;SDS011;2976;49.764;9.796;2022-10-31T08:35:54;62.93;;;9.47;;
5900;SDS011;2976;49.764;9.796;2022-10-31T08:38:19;86.13;;;10.53;;
5900;SDS011;2976;49.764;9.796;2022-10-31T08:40:47;106.10;;;8.83;;
5900;SDS011;2976;49.764;9.796;2022-10-31T08:43:13;80.07;;;7.60;;
5900;SDS011;2976;49.764;9.796;2022-10-31T08:45:40;74.63;;;7.90;;
5900;SDS011;2976;49.764;9.796;2022-10-31T08:48:08;63.93;;;6.53;;
5900;SDS011;2976;49.764;9.796;2022-10-31T08:50:36;68.60;;;7.73;;
5900;SDS011;2976;49.764;9.796;2022-10-31T08:55:28;139.17;;;10.60;;
5900;SDS011;2976;49.764;9.796;2022-10-31T08:57:55;118.33;;;8.50;;
5900;SDS011;2976;49.764;9.796;2022-10-31T09:00:21;138.77;;;9.00;;
5900;SDS011;2976;49.764;9.796;2022-10-31T09:02:47;95.17;;;8.10;;
5900;SDS011;2976;49.764;9.796;2022-10-31T09:05:12;45.50;;;7.57;;
5900;SDS011;2976;49.764;9.796;2022-10-31T09:07:38;46.53;;;7.07;;
5900;SDS011;2976;49.764;9.796;2022-10-31T09:10:04;28.37;;;6.77;;
5900;SDS011;2976;49.764;9.796;2022-10-31T09:12:29;46.33;;;7.90;;
5900;SDS011;2976;49.764;9.796;2022-10-31T09:14:55;43.17;;;6.30;;
5900;SDS011;2976;49.764;9.796;2022-10-31T09:17:20;56.13;;;6.60;;
5900;SDS011;2976;49.764;9.796;2022-10-31T09:19:46;31.73;;;7.03;;
5900;SDS011;2976;49.764;9.796;2022-10-31T09:22:11;66.03;;;7.00;;
5900;SDS011;2976;49.764;9.796;2022-10-31T09:24:37;18.77;;;6.83;;
5900;SDS011;2976;49.764;9.796;2022-10-31T09:27:03;36.60;;;6.93;;
5900;SDS011;2976;49.764;9.796;2022-10-31T09:29:28;67.50;;;7.20;;
5900;SDS011;2976;49.764;9.796;2022-10-31T09:31:55;40.17;;;6.50;;
5900;SDS011;2976;49.764;9.796;2022-10-31T09:34:21;43.57;;;7.50;;
5900;SDS011;2976;49.764;9.796;2022-10-31T09:36:47;40.30;;;6.73;;
5900;SDS011;2976;49.764;9.796;2022-10-31T09:39:12;45.40;;;7.00;;
5900;SDS011;2976;49.764;9.796;2022-10-31T09:50:01;16.07;;;6.67;;
5900;SDS011;2976;49.764;9.796;2022-10-31T09:52:51;38.17;;;7.20;;
5900;SDS011;2976;49.764;9.796;2022-10-31T09:58:02;14.60;;;6.93;;
5900;SDS011;2976;49.764;9.796;2022-10-31T10:00:28;17.83;;;7.00;;
5900;SDS011;2976;49.764;9.796;2022-10-31T10:02:56;59.20;;;9.13;;
5900;SDS011;2976;49.764;9.796;2022-10-31T10:05:43;29.67;;;9.27;;
5900;SDS011;2976;49.764;9.796;2022-10-31T10:08:29;40.10;;;8.50;;
5900;SDS011;2976;49.764;9.796;2022-10-31T10:13:44;38.53;;;10.10;;
5900;SDS011;2976;49.764;9.796;2022-10-31T10:16:18;20.90;;;10.20;;
5900;SDS011;2976;49.764;9.796;2022-10-31T10:18:57;63.97;;;10.43;;
5900;SDS011;2976;49.764;9.796;2022-10-31T10:27:13;89.30;;;9.20;;
5900;SDS011;2976;49.764;9.796;2022-10-31T10:32:29;16.63;;;8.93;;
5900;SDS011;2976;49.764;9.796;2022-10-31T10:35:07;75.20;;;9.80;;
5900;SDS011;2976;49.764;9.796;2022-10-31T10:37:36;17.23;;;9.60;;
5900;SDS011;2976;49.764;9.796;2022-10-31T10:40:21;35.10;;;11.07;;
5900;SDS011;2976;49.764;9.796;2022-10-31T10:43:24;30.13;;;9.20;;
5900;SDS011;2976;49.764;9.796;2022-10-31T10:48:43;28.37;;;10.00;;
5900;SDS011;2976;49.764;9.796;2022-10-31T10:51:19;16.23;;;9.10;;
5900;SDS011;2976;49.764;9.796;2022-10-31T10:59:04;18.43;;;9.27;;
5900;SDS011;2976;49.764;9.796;2022-10-31T11:01:33;11.27;;;8.00;;
5900;SDS011;2976;49.764;9.796;2022-10-31T11:03:59;17.10;;;7.63;;
5900;SDS011;2976;49.764;9.796;2022-10-31T11:06:27;19.53;;;9.07;;
5900;SDS011;2976;49.764;9.796;2022-10-31T11:08:53;18.80;;;8.47;;
5900;SDS011;2976;49.764;9.796;2022-10-31T11:13:51;12.53;;;9.47;;
5900;SDS011;2976;49.764;9.796;2022-10-31T11:21:37;17.13;;;10.17;;
5900;SDS011;2976;49.764;9.796;2022-10-31T11:26:34;21.80;;;10.43;;
5900;SDS011;2976;49.764;9.796;2022-10-31T11:29:02;13.50;;;10.47;;
5900;SDS011;2976;49.764;9.796;2022-10-31T11:31:30;15.43;;;10.93;;
5900;SDS011;2976;49.764;9.796;2022-10-31T11:33:59;21.83;;;10.40;;
5900;SDS011;2976;49.764;9.796;2022-10-31T11:36:28;13.77;;;9.73;;
5900;SDS011;2976;49.764;9.796;2022-10-31T11:38:56;13.83;;;9.63;;
5900;SDS011;2976;49.764;9.796;2022-10-31T11:44:13;16.03;;;9.40;;
5900;SDS011;2976;49.764;9.796;2022-10-31T11:46:56;13.87;;;10.07;;
5900;SDS011;2976;49.764;9.796;2022-10-31T11:49:39;11.20;;;9.80;;
5900;SDS011;2976;49.764;9.796;2022-10-31T11:54:44;21.67;;;14.27;;
5900;SDS011;2976;49.764;9.796;2022-10-31T11:57:27;12.87;;;10.10;;
5900;SDS011;2976;49.764;9.796;2022-10-31T11:59:57;15.90;;;9.40;;
5900;SDS011;2976;49.764;9.796;2022-10-31T12:02:28;11.63;;;9.80;;
5900;SDS011;2976;49.764;9.796;2022-10-31T12:04:59;13.13;;;9.13;;
5900;SDS011;2976;49.764;9.796;2022-10-31T12:07:58;11.73;;;9.57;;
5900;SDS011;2976;49.764;9.796;2022-10-31T12:10:26;16.30;;;10.67;;
5900;SDS011;2976;49.764;9.796;2022-10-31T12:13:06;12.60;;;9.67;;
5900;SDS011;2976;49.764;9.796;2022-10-31T12:15:55;16.27;;;11.03;;
5900;SDS011;2976;49.764;9.796;2022-10-31T12:18:56;13.37;;;10.37;;
5900;SDS011;2976;49.764;9.796;2022-10-31T12:22:09;14.20;;;10.40;;
5900;SDS011;2976;49.764;9.796;2022-10-31T12:27:03;14.23;;;10.90;;
5900;SDS011;2976;49.764;9.796;2022-10-31T12:35:24;13.50;;;11.00;;
5900;SDS011;2976;49.764;9.796;2022-10-31T12:38:01;19.23;;;12.80;;
5900;SDS011;2976;49.764;9.796;2022-10-31T12:43:18;18.17;;;13.00;;
5900;SDS011;2976;49.764;9.796;2022-10-31T12:46:02;18.17;;;12.70;;
5900;SDS011;2976;49.764;9.796;2022-10-31T12:51:24;19.83;;;13.10;;
5900;SDS011;2976;49.764;9.796;2022-10-31T12:59:42;23.60;;;13.87;;
5900;SDS011;2976;49.764;9.796;2022-10-31T13:02:16;15.80;;;12.93;;
5900;SDS011;2976;49.764;9.796;2022-10-31T13:04:48;20.47;;;13.60;;
5900;SDS011;2976;49.764;9.796;2022-10-31T13:07:29;15.00;;;12.10;;
5900;SDS011;2976;49.764;9.796;2022-10-31T13:10:36;17.33;;;12.93;;
5900;SDS011;2976;49.764;9.796;2022-10-31T13:13:23;18.00;;;11.83;;
5900;SDS011;2976;49.764;9.796;2022-10-31T13:15:57;18.33;;;12.50;;
5900;SDS011;2976;49.764;9.796;2022-10-31T13:18:38;14.40;;;12.37;;
5900;SDS011;2976;49.764;9.796;2022-10-31T13:21:08;17.43;;;11.90;;
5900;SDS011;2976;49.764;9.796;2022-10-31T13:23:41;19.10;;;13.17;;
5900;SDS011;2976;49.764;9.796;2022-10-31T13:26:10;20.67;;;12.83;;
5900;SDS011;2976;49.764;9.796;2022-10-31T13:28:43;17.80;;;12.43;;
5900;SDS011;2976;49.764;9.796;2022-10-31T13:31:12;15.00;;;12.13;;
5900;SDS011;2976;49.764;9.796;2022-10-31T13:33:39;17.20;;;13.43;;
5900;SDS011;2976;49.764;9.796;2022-10-31T13:41:32;21.87;;;15.20;;
5900;SDS011;2976;49.764;9.796;2022-10-31T13:44:15;21.23;;;15.83;;
5900;SDS011;2976;49.764;9.796;2022-10-31T13:46:45;34.53;;;23.07;;
5900;SDS011;2976;49.764;9.796;2022-10-31T13:51:50;25.30;;;16.23;;
5900;SDS011;2976;49.764;9.796;2022-10-31T13:54:23;24.77;;;18.17;;
5900;SDS011;2976;49.764;9.796;2022-10-31T13:57:16;24.80;;;16.00;;
5900;SDS011;2976;49.764;9.796;2022-10-31T13:59:46;23.37;;;16.33;;
5900;SDS011;2976;49.764;9.796;2022-10-31T14:02:17;24.53;;;16.23;;
5900;SDS011;2976;49.764;9.796;2022-10-31T14:04:51;26.80;;;17.80;;
5900;SDS011;2976;49.764;9.796;2022-10-31T14:07:19;19.93;;;15.57;;
5900;SDS011;2976;49.764;9.796;2022-10-31T14:15:02;23.43;;;16.33;;
5900;SDS011;2976;49.764;9.796;2022-10-31T14:17:40;26.03;;;16.40;;
5900;SDS011;2976;49.764;9.796;2022-10-31T14:20:25;24.17;;;16.87;;
5900;SDS011;2976;49.764;9.796;2022-10-31T14:23:10;27.30;;;17.77;;
5900;SDS011;2976;49.764;9.796;2022-10-31T14:28:42;28.90;;;18.00;;
5900;SDS011;2976;49.764;9.796;2022-10-31T14:31:27;26.70;;;19.63;;
5900;SDS011;2976;49.764;9.796;2022-10-31T14:50:52;38.40;;;21.90;;
5900;SDS011;2976;49.764;9.796;2022-10-31T14:55:56;36.17;;;21.87;;
5900;SDS011;2976;49.764;9.796;2022-10-31T14:58:24;31.53;;;22.27;;
5900;SDS011;2976;49.764;9.796;2022-10-31T15:01:03;37.83;;;22.57;;
5900;SDS011;2976;49.764;9.796;2022-10-31T15:03:30;31.23;;;21.30;;
5900;SDS011;2976;49.764;9.796;2022-10-31T15:05:58;46.77;;;24.30;;
5900;SDS011;2976;49.764;9.796;2022-10-31T15:08:32;195.80;;;67.30;;
5900;SDS011;2976;49.764;9.796;2022-10-31T15:10:57;51.93;;;25.60;;
5900;SDS011;2976;49.764;9.796;2022-10-31T15:13:23;34.57;;;20.93;;
5900;SDS011;2976;49.764;9.796;2022-10-31T15:15:49;32.70;;;22.10;;
5900;SDS011;2976;49.764;9.796;2022-10-31T15:18:19;33.37;;;20.63;;
5900;SDS011;2976;49.764;9.796;2022-10-31T15:20:48;30.73;;;21.27;;
5900;SDS011;2976;49.764;9.796;2022-10-31T15:23:16;29.73;;;20.47;;
5900;SDS011;2976;49.764;9.796;2022-10-31T15:25:50;27.33;;;19.40;;
5900;SDS011;2976;49.764;9.796;2022-10-31T15:28:22;28.00;;;19.90;;
5900;SDS011;2976;49.764;9.796;2022-10-31T15:30:50;31.27;;;20.57;;
5900;SDS011;2976;49.764;9.796;2022-10-31T15:33:21;38.00;;;21.00;;
5900;SDS011;2976;49.764;9.796;2022-10-31T15:35:56;34.10;;;23.77;;
5900;SDS011;2976;49.764;9.796;2022-10-31T15:38:23;25.77;;;18.77;;
5900;SDS011;2976;49.764;9.796;2022-10-31T15:40:53;27.17;;;19.20;;
5900;SDS011;2976;49.764;9.796;2022-10-31T15:43:22;29.77;;;19.50;;
5900;SDS011;2976;49.764;9.796;2022-10-31T15:45:48;27.90;;;18.57;;
5900;SDS011;2976;49.764;9.796;2022-10-31T15:48:18;29.87;;;19.87;;
5900;SDS011;2976;49.764;9.796;2022-10-31T15:50:54;33.63;;;21.73;;
5900;SDS011;2976;49.764;9.796;2022-10-31T15:55:51;40.90;;;24.23;;
5900;SDS011;2976;49.764;9.796;2022-10-31T15:58:22;38.40;;;24.07;;
5900;SDS011;2976;49.764;9.796;2022-10-31T16:01:05;58.50;;;24.90;;
5900;SDS011;2976;49.764;9.796;2022-10-31T16:03:43;62.97;;;26.27;;
5900;SDS011;2976;49.764;9.796;2022-10-31T16:06:21;179.93;;;26.80;;
5900;SDS011;2976;49.764;9.796;2022-10-31T16:08:48;213.07;;;27.90;;
5900;SDS011;2976;49.764;9.796;2022-10-31T16:13:58;149.00;;;28.30;;
5900;SDS011;2976;49.764;9.796;2022-10-31T16:16:30;217.70;;;27.13;;
5900;SDS011;2976;49.764;9.796;2022-10-31T16:18:58;147.40;;;26.27;;
5900;SDS011;2976;49.764;9.796;2022-10-31T16:21:30;158.43;;;28.43;;
5900;SDS011;2976;49.764;9.796;2022-10-31T16:24:04;149.47;;;26.53;;
5900;SDS011;2976;49.764;9.796;2022-10-31T16:26:38;134.43;;;24.33;;
5900;SDS011;2976;49.764;9.796;2022-10-31T16:29:03;239.03;;;27.13;;
5900;SDS011;2976;49.764;9.796;2022-10-31T16:31:39;145.67;;;23.70;;
5900;SDS011;2976;49.764;9.796;2022-10-31T16:34:15;226.33;;;26.40;;
5900;SDS011;2976;49.764;9.796;2022-10-31T16:36:44;138.90;;;28.83;;
5900;SDS011;2976;49.764;9.796;2022-10-31T16:39:10;144.23;;;29.87;;
5900;SDS011;2976;49.764;9.796;2022-10-31T16:41:39;337.57;;;65.97;;
5900;SDS011;2976;49.764;9.796;2022-10-31T16:44:12;296.83;;;65.93;;
5900;SDS011;2976;49.764;9.796;2022-10-31T16:46:44;169.43;;;49.80;;
5900;SDS011;2976;49.764;9.796;2022-10-31T16:49:09;122.17;;;35.47;;
5900;SDS011;2976;49.764;9.796;2022-10-31T16:51:35;54.80;;;26.67;;
5900;SDS011;2976;49.764;9.796;2022-10-31T16:54:01;110.97;;;28.40;;
5900;SDS011;2976;49.764;9.796;2022-10-31T16:56:30;263.10;;;35.63;;
5900;SDS011;2976;49.764;9.796;2022-10-31T16:58:58;166.13;;;34.10;;
5900;SDS011;2976;49.764;9.796;2022-10-31T17:01:29;257.30;;;33.67;;
5900;SDS011;2976;49.764;9.796;2022-10-31T17:03:56;112.63;;;29.37;;
5900;SDS011;2976;49.764;9.796;2022-10-31T17:06:21;159.10;;;31.70;;
5900;SDS011;2976;49.764;9.796;2022-10-31T17:08:47;279.67;;;36.50;;
5900;SDS011;2976;49.764;9.796;2022-10-31T17:11:17;369.83;;;69.70;;
5900;SDS011;2976;49.764;9.796;2022-10-31T17:13:45;138.07;;;45.00;;
5900;SDS011;2976;49.764;9.796;2022-10-31T17:16:11;202.37;;;34.83;;
5900;SDS011;2976;49.764;9.796;2022-10-31T17:18:39;191.83;;;35.00;;
5900;SDS011;2976;49.764;9.796;2022-10-31T17:21:05;172.27;;;37.50;;
5900;SDS011;2976;49.764;9.796;2022-10-31T17:23:30;146.90;;;32.53;;
5900;SDS011;2976;49.764;9.796;2022-10-31T17:25:57;165.67;;;30.27;;
5900;SDS011;2976;49.764;9.796;2022-10-31T17:28:23;113.57;;;25.83;;
5900;SDS011;2976;49.764;9.796;2022-10-31T17:30:50;71.27;;;24.53;;